Time;durP1;ratioP1;P1;durP2;ratioP2;P2;SDS_P1;SDS_P2;PMS_P1;PMS_P2;Temp;Humidity;BMP_temperature;BMP_pressure;BME280_temperature;BME280_humidity;BME280_pressure;Samples;Min_cycle;Max_cycle;Signal;HPM_P1;HPM_P2
2021/08/05 00:01:48;;;;;;;0.20;0.20;;;16.30;99.90;;;;;;5093818;28;20215;-85
2021/08/05 00:04:14;;;;;;;0.87;0.47;;;16.40;99.90;;;;;;5072574;28;20595;-86
2021/08/05 00:06:40;;;;;;;0.30;0.30;;;16.50;99.90;;;;;;5076338;28;20188;-86
2021/08/05 00:09:05;;;;;;;0.27;0.20;;;16.50;99.90;;;;;;5066393;28;20207;-85
2021/08/05 00:11:31;;;;;;;0.93;0.30;;;16.40;99.90;;;;;;5056592;28;20224;-87
2021/08/05 00:13:57;;;;;;;0.47;0.30;;;16.30;99.90;;;;;;5088601;28;20559;-85
2021/08/05 00:16:23;;;;;;;0.40;0.40;;;16.20;99.90;;;;;;5068503;28;20218;-86
2021/08/05 00:18:49;;;;;;;0.30;0.30;;;16.20;99.90;;;;;;5075285;28;20179;-86
2021/08/05 00:21:16;;;;;;;0.30;0.30;;;16.10;99.90;;;;;;5076292;28;20615;-85
2021/08/05 00:23:42;;;;;;;0.30;0.30;;;16.30;99.90;;;;;;5075442;28;20175;-85
2021/08/05 00:26:07;;;;;;;0.33;0.33;;;16.40;99.90;;;;;;5067161;28;20595;-86
2021/08/05 00:28:33;;;;;;;0.40;0.30;;;16.30;99.90;;;;;;5075024;28;20183;-85
2021/08/05 00:30:59;;;;;;;0.27;0.27;;;16.20;99.90;;;;;;5075779;28;20187;-84
2021/08/05 00:33:25;;;;;;;0.40;0.40;;;16.10;99.90;;;;;;5080315;28;20183;-85
2021/08/05 00:35:51;;;;;;;0.43;0.43;;;16.10;99.90;;;;;;5094081;28;20203;-85
2021/08/05 00:38:17;;;;;;;0.20;0.20;;;16.20;99.90;;;;;;5093811;28;20183;-86
2021/08/05 00:40:43;;;;;;;0.10;0.10;;;16.20;99.90;;;;;;5092547;28;20176;-86
2021/08/05 00:43:08;;;;;;;0.27;0.27;;;16.30;99.90;;;;;;5084891;28;20244;-85
2021/08/05 00:45:34;;;;;;;0.40;0.40;;;16.50;99.90;;;;;;5075214;28;20663;-85
2021/08/05 00:48:00;;;;;;;0.50;0.47;;;16.70;99.90;;;;;;5074052;28;20648;-86
2021/08/05 00:50:25;;;;;;;0.20;0.20;;;16.90;99.90;;;;;;5072090;28;20185;-85
2021/08/05 00:52:52;;;;;;;0.20;0.17;;;17.00;99.90;;;;;;5068285;28;20212;-85
2021/08/05 00:55:18;;;;;;;0.10;0.10;;;17.10;99.90;;;;;;5075176;28;20203;-85
2021/08/05 00:57:44;;;;;;;0.20;0.20;;;17.20;99.90;;;;;;5070555;28;20181;-86
2021/08/05 01:00:11;;;;;;;0.30;0.30;;;17.20;99.90;;;;;;5074427;28;20183;-86
2021/08/05 01:02:43;;;;;;;0.60;0.30;;;17.20;99.90;;;;;;5093453;28;20211;-85
2021/08/05 01:05:09;;;;;;;0.30;0.30;;;17.20;99.90;;;;;;5075214;28;20237;-86
2021/08/05 01:07:41;;;;;;;0.30;0.30;;;17.20;99.90;;;;;;5091766;28;20534;-85
2021/08/05 01:10:48;;;;;;;0.20;0.20;;;17.00;99.90;;;;;;5071818;28;20212;-85
2021/08/05 01:13:38;;;;;;;1.03;0.23;;;16.90;99.90;;;;;;5053193;28;20196;-86
2021/08/05 01:16:16;;;;;;;0.10;0.10;;;16.70;99.90;;;;;;5068920;28;20554;-85
2021/08/05 01:18:45;;;;;;;0.40;0.40;;;17.00;99.90;;;;;;5055176;28;20180;-85
2021/08/05 01:21:37;;;;;;;0.43;0.43;;;17.10;99.90;;;;;;5074417;28;20203;-86
2021/08/05 01:24:07;;;;;;;0.30;0.30;;;17.20;99.90;;;;;;5090425;28;20196;-88
2021/08/05 01:26:55;;;;;;;0.93;0.50;;;17.00;99.90;;;;;;5063922;28;20598;-86
2021/08/05 01:29:21;;;;;;;0.23;0.23;;;16.70;99.90;;;;;;5093040;28;20400;-85
2021/08/05 01:31:48;;;;;;;1.53;0.57;;;16.50;99.90;;;;;;5067987;28;20220;-85
2021/08/05 01:34:15;;;;;;;0.20;0.20;;;16.40;99.90;;;;;;5074513;28;20184;-85
2021/08/05 01:36:46;;;;;;;0.10;0.10;;;16.40;99.90;;;;;;5073988;28;20375;-86
2021/08/05 01:39:20;;;;;;;0.23;0.23;;;16.30;99.90;;;;;;5090707;28;20721;-86
2021/08/05 01:41:48;;;;;;;0.33;0.33;;;16.30;99.90;;;;;;5087281;28;20223;-85
2021/08/05 01:44:15;;;;;;;0.20;0.20;;;16.30;99.90;;;;;;5074737;28;20187;-86
2021/08/05 01:46:42;;;;;;;0.33;0.27;;;16.40;99.90;;;;;;5068018;28;20545;-86
2021/08/05 01:49:08;;;;;;;0.40;0.40;;;16.60;99.90;;;;;;5073964;28;20191;-86
2021/08/05 01:51:34;;;;;;;0.20;0.20;;;16.70;99.90;;;;;;5074122;28;20318;-88
2021/08/05 01:54:01;;;;;;;0.40;0.20;;;16.70;99.90;;;;;;5092015;28;20237;-86
2021/08/05 01:56:26;;;;;;;0.20;0.20;;;16.80;99.90;;;;;;5091464;28;20577;-86
2021/08/05 01:58:55;;;;;;;0.20;0.20;;;16.80;99.90;;;;;;5070299;28;20183;-86
2021/08/05 02:01:20;;;;;;;1.93;1.80;;;16.80;99.90;;;;;;5092035;28;20196;-86
2021/08/05 02:04:05;;;;;;;0.10;0.10;;;16.80;99.90;;;;;;5071887;28;20271;-86
2021/08/05 02:06:40;;;;;;;0.30;0.30;;;16.90;99.90;;;;;;5089713;28;20199;-86
2021/08/05 02:09:12;;;;;;;0.30;0.30;;;16.70;99.90;;;;;;5066945;28;20238;-87
2021/08/05 02:11:42;;;;;;;0.30;0.30;;;16.70;99.90;;;;;;5085976;28;20212;-87
2021/08/05 02:14:10;;;;;;;0.30;0.30;;;16.80;99.90;;;;;;5088525;28;20184;-86
2021/08/05 02:16:38;;;;;;;0.20;0.20;;;16.90;99.90;;;;;;5066479;28;20272;-86
2021/08/05 02:19:06;;;;;;;0.30;0.30;;;16.90;99.90;;;;;;5091570;28;20176;-86
2021/08/05 02:21:32;;;;;;;3.27;0.47;;;16.80;99.90;;;;;;5076273;28;20249;-86
2021/08/05 02:23:58;;;;;;;0.53;0.50;;;16.70;99.90;;;;;;5074636;28;20557;-86
2021/08/05 02:26:25;;;;;;;0.20;0.20;;;16.70;99.90;;;;;;5078194;28;20192;-86
2021/08/05 02:28:51;;;;;;;0.30;0.30;;;16.70;99.90;;;;;;5076483;28;20687;-86
2021/08/05 02:31:18;;;;;;;0.30;0.30;;;16.60;99.90;;;;;;5067607;28;20277;-86
2021/08/05 02:33:44;;;;;;;0.33;0.33;;;16.60;99.90;;;;;;5097156;28;20204;-86
2021/08/05 02:36:10;;;;;;;0.37;0.37;;;16.60;99.90;;;;;;5096012;28;20215;-86
2021/08/05 02:38:36;;;;;;;0.60;0.60;;;16.60;99.90;;;;;;5077610;28;20244;-86
2021/08/05 02:41:05;;;;;;;0.10;0.10;;;16.50;99.90;;;;;;5095437;28;20651;-85
2021/08/05 02:43:32;;;;;;;0.20;0.20;;;16.50;99.90;;;;;;5088376;28;20234;-86
2021/08/05 02:45:59;;;;;;;0.30;0.30;;;16.50;99.90;;;;;;5095403;28;20188;-86
2021/08/05 02:48:25;;;;;;;0.40;0.40;;;16.50;99.90;;;;;;5095425;28;20245;-86
2021/08/05 02:50:54;;;;;;;0.20;0.20;;;16.50;99.90;;;;;;5091722;28;20192;-86
2021/08/05 02:53:19;;;;;;;0.30;0.30;;;16.50;99.90;;;;;;5075644;28;20225;-86
2021/08/05 02:55:47;;;;;;;0.53;0.53;;;16.30;99.90;;;;;;5076979;28;20686;-86
2021/08/05 02:58:13;;;;;;;0.40;0.40;;;16.10;99.90;;;;;;5077012;28;20188;-86
2021/08/05 03:00:38;;;;;;;0.20;0.20;;;15.60;99.90;;;;;;5095574;28;20187;-86
2021/08/05 03:03:05;;;;;;;0.20;0.20;;;15.40;99.90;;;;;;5089720;28;20193;-86
2021/08/05 03:05:30;;;;;;;0.10;0.10;;;15.40;99.90;;;;;;5090196;28;20196;-86
2021/08/05 03:07:56;;;;;;;0.20;0.20;;;15.50;99.90;;;;;;5072447;28;20191;-86
2021/08/05 03:10:23;;;;;;;0.20;0.17;;;15.60;99.90;;;;;;5075669;28;20199;-86
2021/08/05 03:12:48;;;;;;;0.30;0.30;;;15.70;99.90;;;;;;5076134;28;20564;-86
2021/08/05 03:15:14;;;;;;;0.33;0.33;;;15.80;99.90;;;;;;5081568;28;20261;-86
2021/08/05 03:17:40;;;;;;;0.10;0.10;;;15.80;99.90;;;;;;5076534;28;20674;-86
2021/08/05 03:20:07;;;;;;;0.50;0.50;;;15.90;99.90;;;;;;5089974;28;20183;-85
2021/08/05 03:22:33;;;;;;;0.20;0.20;;;15.90;99.90;;;;;;5094197;28;20208;-86
2021/08/05 03:24:58;;;;;;;0.20;0.20;;;15.90;99.90;;;;;;5074996;28;20191;-86
2021/08/05 03:27:24;;;;;;;0.57;0.57;;;15.90;99.90;;;;;;5077094;28;20237;-86
2021/08/05 03:29:49;;;;;;;0.10;0.10;;;15.90;99.90;;;;;;5064774;28;20214;-85
2021/08/05 03:32:15;;;;;;;0.20;0.20;;;15.90;99.90;;;;;;5079006;28;20298;-85
2021/08/05 03:34:40;;;;;;;0.20;0.20;;;15.90;99.90;;;;;;5082068;28;20198;-83
2021/08/05 03:37:06;;;;;;;0.50;0.33;;;15.90;99.90;;;;;;5098153;28;20183;-85
2021/08/05 03:39:33;;;;;;;0.37;0.37;;;15.90;99.90;;;;;;5069592;28;20192;-83
2021/08/05 03:41:59;;;;;;;0.30;0.30;;;15.90;99.90;;;;;;5093481;28;20594;-83
2021/08/05 03:44:25;;;;;;;0.40;0.40;;;15.90;99.90;;;;;;5074834;28;20180;-84
2021/08/05 03:46:50;;;;;;;0.30;0.30;;;15.90;99.90;;;;;;5078254;28;20199;-83
2021/08/05 03:49:17;;;;;;;0.50;0.50;;;15.90;99.90;;;;;;5077161;28;20202;-83
2021/08/05 03:51:44;;;;;;;0.40;0.40;;;15.90;99.90;;;;;;5092474;28;20204;-83
2021/08/05 03:54:09;;;;;;;0.30;0.20;;;15.90;99.90;;;;;;5078789;28;20188;-83
2021/08/05 03:56:35;;;;;;;0.53;0.50;;;15.70;99.90;;;;;;5093669;28;20750;-82
2021/08/05 03:59:01;;;;;;;2.40;0.60;;;15.40;99.90;;;;;;5096256;28;20306;-82
2021/08/05 04:01:27;;;;;;;0.20;0.20;;;15.20;99.90;;;;;;5094257;28;20227;-83
2021/08/05 04:03:55;;;;;;;0.43;0.40;;;15.10;99.90;;;;;;5100266;28;20549;-83
2021/08/05 04:06:21;;;;;;;1.23;1.13;;;15.30;99.90;;;;;;5075006;28;20178;-86
2021/08/05 04:08:46;;;;;;;0.40;0.40;;;15.30;99.90;;;;;;5088838;28;20568;-84
2021/08/05 04:11:12;;;;;;;0.37;0.37;;;15.30;99.90;;;;;;5087658;28;20206;-86
2021/08/05 04:13:37;;;;;;;0.30;0.30;;;15.50;99.90;;;;;;5091727;28;20275;-87
2021/08/05 04:16:04;;;;;;;0.40;0.40;;;15.60;99.90;;;;;;5073947;28;20293;-86
2021/08/05 04:18:32;;;;;;;0.30;0.30;;;15.70;99.90;;;;;;5087741;28;20186;-87
2021/08/05 04:20:57;;;;;;;0.30;0.23;;;15.50;99.90;;;;;;5080674;28;20270;-85
2021/08/05 04:23:23;;;;;;;0.30;0.30;;;15.30;99.90;;;;;;5088171;28;20241;-85
2021/08/05 04:25:48;;;;;;;0.83;0.60;;;15.10;99.90;;;;;;5076142;28;20198;-85
2021/08/05 04:28:14;;;;;;;0.80;0.40;;;14.90;99.90;;;;;;5066898;28;20193;-86
2021/08/05 04:30:40;;;;;;;0.20;0.20;;;14.70;99.90;;;;;;5090484;28;20220;-86
2021/08/05 04:33:05;;;;;;;0.20;0.20;;;14.80;99.90;;;;;;5076022;28;20202;-85
2021/08/05 04:35:31;;;;;;;0.20;0.20;;;15.10;99.90;;;;;;5093623;28;20209;-85
2021/08/05 04:37:58;;;;;;;0.30;0.30;;;15.30;99.90;;;;;;5069766;28;20669;-84
2021/08/05 04:40:27;;;;;;;0.10;0.10;;;15.50;99.90;;;;;;5082307;28;20219;-84
2021/08/05 04:42:53;;;;;;;0.20;0.20;;;15.70;99.90;;;;;;5081150;28;20230;-85
2021/08/05 04:45:19;;;;;;;0.10;0.10;;;15.90;99.90;;;;;;5087269;28;20242;-85
2021/08/05 04:47:52;;;;;;;0.13;0.13;;;16.10;99.90;;;;;;5090300;28;20531;-85
2021/08/05 04:50:18;;;;;;;0.30;0.30;;;16.40;99.90;;;;;;5088861;28;20183;-86
2021/08/05 04:52:44;;;;;;;0.40;0.40;;;16.50;99.90;;;;;;5068591;28;20753;-84
2021/08/05 04:55:09;;;;;;;3.40;0.40;;;16.50;99.90;;;;;;5073679;28;20314;-85
2021/08/05 04:57:46;;;;;;;0.33;0.30;;;16.40;99.90;;;;;;5071557;28;20187;-85
2021/08/05 05:00:30;;;;;;;0.30;0.30;;;16.60;99.90;;;;;;5074430;28;20191;-85
2021/08/05 05:02:56;;;;;;;1.07;0.50;;;16.50;99.90;;;;;;5075001;28;20317;-85
2021/08/05 05:05:22;;;;;;;0.47;0.47;;;16.70;99.90;;;;;;5073985;28;20273;-85
2021/08/05 05:07:49;;;;;;;0.50;0.20;;;16.90;99.90;;;;;;5073141;28;20292;-85
2021/08/05 05:10:15;;;;;;;0.40;0.40;;;17.20;99.90;;;;;;5094404;28;20192;-85
2021/08/05 05:12:41;;;;;;;0.20;0.20;;;17.30;99.90;;;;;;5091780;28;20204;-86
2021/08/05 05:15:08;;;;;;;0.20;0.20;;;17.50;99.90;;;;;;5092020;28;20203;-85
2021/08/05 05:17:35;;;;;;;0.20;0.20;;;17.80;99.90;;;;;;5075894;28;20180;-86
2021/08/05 05:20:01;;;;;;;0.27;0.27;;;17.70;99.90;;;;;;5092984;28;20180;-85
2021/08/05 05:22:26;;;;;;;0.30;0.30;;;17.80;99.90;;;;;;5086460;28;20262;-85
2021/08/05 05:24:53;;;;;;;0.33;0.33;;;17.90;99.90;;;;;;5088199;28;20652;-85
2021/08/05 05:27:18;;;;;;;1.83;0.40;;;17.90;99.90;;;;;;5075990;28;20200;-89
2021/08/05 05:29:44;;;;;;;0.30;0.30;;;17.90;99.90;;;;;;5092549;28;20242;-85
2021/08/05 05:32:09;;;;;;;0.27;0.20;;;17.80;99.90;;;;;;5091952;28;20696;-85
2021/08/05 05:34:35;;;;;;;0.27;0.27;;;17.50;99.90;;;;;;5076040;28;20184;-86
2021/08/05 05:37:01;;;;;;;0.20;0.20;;;17.40;99.90;;;;;;5067779;28;20227;-85
2021/08/05 05:39:27;;;;;;;2.43;0.40;;;17.70;99.90;;;;;;5075260;28;20188;-85
2021/08/05 05:41:52;;;;;;;0.40;0.40;;;17.90;99.90;;;;;;5093465;28;20215;-85
2021/08/05 05:44:20;;;;;;;0.33;0.33;;;18.30;99.90;;;;;;5074605;28;20668;-86
2021/08/05 05:46:45;;;;;;;0.30;0.30;;;18.40;99.90;;;;;;5065506;28;20196;-86
2021/08/05 05:49:11;;;;;;;0.57;0.30;;;18.60;99.90;;;;;;5069420;28;20192;-85
2021/08/05 05:51:37;;;;;;;0.30;0.27;;;18.90;99.90;;;;;;5077699;28;20207;-85
2021/08/05 05:54:05;;;;;;;0.53;0.53;;;19.10;99.90;;;;;;5093273;28;20196;-85
2021/08/05 05:56:31;;;;;;;0.53;0.47;;;19.20;99.90;;;;;;5066952;28;20687;-86
2021/08/05 05:58:57;;;;;;;1.33;0.60;;;19.40;99.90;;;;;;5077859;28;20195;-86
2021/08/05 06:01:23;;;;;;;0.80;0.80;;;19.30;99.90;;;;;;5095664;28;20216;-85
2021/08/05 06:03:56;;;;;;;0.53;0.50;;;19.40;99.90;;;;;;5096813;28;20187;-86
2021/08/05 06:06:22;;;;;;;0.50;0.50;;;19.20;99.90;;;;;;5067740;28;20192;-86
2021/08/05 06:08:49;;;;;;;0.73;0.60;;;18.90;99.90;;;;;;5093582;28;20640;-85
2021/08/05 06:11:14;;;;;;;0.50;0.43;;;18.90;99.90;;;;;;5094741;28;20215;-85
2021/08/05 06:13:40;;;;;;;1.80;0.80;;;19.10;99.90;;;;;;5069553;28;20214;-85
2021/08/05 06:16:05;;;;;;;2.03;0.70;;;19.30;99.90;;;;;;5089223;28;20287;-85
2021/08/05 06:18:31;;;;;;;1.00;0.77;;;19.50;99.90;;;;;;5089247;28;20279;-86
2021/08/05 06:20:56;;;;;;;1.40;0.80;;;19.60;99.90;;;;;;5077109;28;20717;-86
2021/08/05 06:23:22;;;;;;;1.37;0.63;;;19.70;99.90;;;;;;5077609;28;20275;-85
2021/08/05 06:25:47;;;;;;;2.33;0.60;;;19.70;99.90;;;;;;5095668;28;20188;-86
2021/08/05 06:28:14;;;;;;;0.40;0.40;;;19.70;99.90;;;;;;5072459;28;20197;-86
2021/08/05 06:30:39;;;;;;;0.40;0.40;;;19.60;99.90;;;;;;5082329;28;20184;-85
2021/08/05 06:33:09;;;;;;;1.80;0.90;;;19.90;99.90;;;;;;5079701;28;20215;-85
2021/08/05 06:35:35;;;;;;;0.67;0.57;;;20.10;99.90;;;;;;5078401;28;20211;-85
2021/08/05 06:38:00;;;;;;;2.23;0.57;;;20.20;99.90;;;;;;5077283;28;20180;-84
2021/08/05 06:40:26;;;;;;;0.50;0.50;;;20.30;99.90;;;;;;5078803;28;20267;-85
2021/08/05 06:42:51;;;;;;;0.60;0.60;;;20.10;99.90;;;;;;5094503;28;20217;-86
2021/08/05 06:45:18;;;;;;;0.50;0.50;;;20.00;99.90;;;;;;5091020;28;20184;-85
2021/08/05 06:47:46;;;;;;;0.83;0.83;;;20.30;99.90;;;;;;5076707;28;20572;-85
2021/08/05 06:50:13;;;;;;;0.33;0.33;;;20.50;99.90;;;;;;5075746;28;20227;-85
2021/08/05 06:52:38;;;;;;;0.73;0.73;;;20.70;99.90;;;;;;5080672;28;20200;-84
2021/08/05 06:55:05;;;;;;;0.67;0.37;;;20.90;99.90;;;;;;5100881;28;20219;-85
2021/08/05 06:57:31;;;;;;;0.70;0.70;;;20.70;99.90;;;;;;5071759;28;20221;-87
2021/08/05 06:59:58;;;;;;;0.67;0.60;;;20.40;99.90;;;;;;5095862;28;20180;-85
2021/08/05 07:02:23;;;;;;;0.93;0.50;;;20.40;99.90;;;;;;5090812;28;20204;-87
2021/08/05 07:04:49;;;;;;;0.60;0.60;;;20.80;99.90;;;;;;5073318;28;20241;-85
2021/08/05 07:07:14;;;;;;;0.87;0.63;;;21.20;99.90;;;;;;5070755;28;20185;-84
2021/08/05 07:09:40;;;;;;;1.20;0.97;;;21.60;99.90;;;;;;5070962;28;20181;-85
2021/08/05 07:12:06;;;;;;;0.57;0.57;;;22.00;99.90;;;;;;5082932;28;20197;-85
2021/08/05 07:14:31;;;;;;;0.73;0.50;;;22.20;99.90;;;;;;5094216;28;20263;-84
2021/08/05 07:16:57;;;;;;;0.20;0.20;;;22.50;99.90;;;;;;5095298;28;20676;-85
2021/08/05 07:19:22;;;;;;;0.23;0.23;;;22.70;99.90;;;;;;5077488;28;20196;-85
2021/08/05 07:21:48;;;;;;;0.83;0.80;;;22.80;99.90;;;;;;5078095;28;20227;-86
2021/08/05 07:24:14;;;;;;;0.50;0.50;;;22.80;99.90;;;;;;5075315;28;20183;-88
2021/08/05 07:26:40;;;;;;;0.50;0.50;;;22.60;99.90;;;;;;5078631;28;20229;-87
2021/08/05 07:29:06;;;;;;;0.47;0.40;;;22.50;99.90;;;;;;5072326;28;20189;-87
2021/08/05 07:31:32;;;;;;;0.43;0.43;;;22.40;99.90;;;;;;5075775;28;20841;-86
2021/08/05 07:33:58;;;;;;;0.17;0.17;;;22.40;99.90;;;;;;5075974;28;20284;-88
2021/08/05 07:36:24;;;;;;;0.50;0.50;;;22.40;99.90;;;;;;5076091;28;20222;-87
2021/08/05 07:38:50;;;;;;;0.40;0.40;;;22.50;99.90;;;;;;5075149;28;20636;-87
2021/08/05 07:41:16;;;;;;;1.03;0.87;;;22.50;99.90;;;;;;5091777;28;20208;-87
2021/08/05 07:43:46;;;;;;;0.70;0.70;;;22.40;99.90;;;;;;5070950;28;20277;-87
2021/08/05 07:46:12;;;;;;;0.33;0.33;;;22.60;99.90;;;;;;5076560;28;20233;-87
2021/08/05 07:48:38;;;;;;;0.30;0.30;;;22.70;99.90;;;;;;5071800;28;20247;-86
2021/08/05 07:51:04;;;;;;;0.50;0.50;;;22.80;99.90;;;;;;5075256;28;20667;-87
2021/08/05 07:53:29;;;;;;;1.30;1.20;;;22.50;99.90;;;;;;5075991;28;20184;-85
2021/08/05 07:55:55;;;;;;;0.37;0.37;;;22.20;99.90;;;;;;5080349;28;20200;-87
2021/08/05 07:58:21;;;;;;;0.50;0.50;;;22.40;99.90;;;;;;5090543;28;20212;-85
2021/08/05 08:00:46;;;;;;;0.47;0.30;;;22.40;99.90;;;;;;5094161;28;20185;-86
2021/08/05 08:03:12;;;;;;;0.20;0.20;;;22.60;99.90;;;;;;5093143;28;20684;-86
2021/08/05 08:05:41;;;;;;;0.60;0.60;;;22.70;99.90;;;;;;5075403;28;20211;-86
2021/08/05 08:08:07;;;;;;;0.40;0.40;;;22.60;99.90;;;;;;5092982;28;20237;-86
2021/08/05 08:10:33;;;;;;;0.70;0.70;;;22.50;99.90;;;;;;5096075;28;20184;-86
2021/08/05 08:12:59;;;;;;;0.40;0.40;;;22.70;99.90;;;;;;5072973;28;20288;-86
2021/08/05 08:15:25;;;;;;;2.33;0.50;;;23.00;99.90;;;;;;5093188;28;20639;-86
2021/08/05 08:17:51;;;;;;;0.37;0.37;;;23.20;99.90;;;;;;5074815;28;20652;-86
2021/08/05 08:20:17;;;;;;;0.43;0.43;;;23.10;99.90;;;;;;5076836;28;20264;-87
2021/08/05 08:22:43;;;;;;;1.03;1.03;;;22.90;99.90;;;;;;5088581;28;20283;-87
2021/08/05 08:25:09;;;;;;;0.43;0.43;;;23.30;99.90;;;;;;5075189;28;20612;-87
2021/08/05 08:27:34;;;;;;;0.40;0.40;;;23.50;99.90;;;;;;5096678;28;20238;-86
2021/08/05 08:30:00;;;;;;;0.40;0.40;;;23.60;99.90;;;;;;5074599;28;20195;-86
2021/08/05 08:32:25;;;;;;;0.80;0.30;;;23.70;99.90;;;;;;5087403;28;20614;-86
2021/08/05 08:34:51;;;;;;;0.30;0.30;;;23.90;99.90;;;;;;5074092;28;20192;-86
2021/08/05 08:37:16;;;;;;;0.70;0.70;;;24.20;99.90;;;;;;5092344;28;20191;-86
2021/08/05 08:39:42;;;;;;;0.30;0.30;;;24.20;99.90;;;;;;5087393;28;20184;-86
2021/08/05 08:42:08;;;;;;;0.40;0.40;;;24.30;99.90;;;;;;5066445;28;20216;-86
2021/08/05 08:44:34;;;;;;;0.43;0.43;;;24.20;99.90;;;;;;5091727;28;20580;-87
2021/08/05 08:47:00;;;;;;;0.53;0.53;;;24.10;99.90;;;;;;5073985;28;20187;-86
2021/08/05 08:49:27;;;;;;;0.33;0.33;;;24.10;99.90;;;;;;5072655;28;20208;-88
2021/08/05 08:51:55;;;;;;;0.67;0.63;;;24.20;99.90;;;;;;5067249;28;20606;-87
2021/08/05 08:54:22;;;;;;;0.60;0.40;;;24.30;99.90;;;;;;5092858;28;20176;-87
2021/08/05 08:56:48;;;;;;;0.50;0.50;;;24.30;99.90;;;;;;5092988;28;20762;-87
2021/08/05 08:59:17;;;;;;;0.53;0.53;;;24.50;99.90;;;;;;5074501;28;20704;-86
2021/08/05 09:01:43;;;;;;;0.73;0.60;;;24.60;99.90;;;;;;5074238;28;20202;-87
2021/08/05 09:04:09;;;;;;;0.60;0.60;;;23.90;99.90;;;;;;5074695;28;20267;-87
2021/08/05 09:06:35;;;;;;;0.90;0.90;;;23.70;99.90;;;;;;5074763;28;20233;-87
2021/08/05 09:09:04;;;;;;;4.07;0.67;;;23.90;99.90;;;;;;5074541;28;20184;-87
2021/08/05 09:11:29;;;;;;;1.30;0.57;;;23.90;99.90;;;;;;5092498;28;20227;-87
2021/08/05 09:13:55;;;;;;;0.53;0.43;;;24.10;99.90;;;;;;5074626;28;20637;-87
2021/08/05 09:16:30;;;;;;;0.30;0.30;;;24.00;99.90;;;;;;5090542;28;20414;-87
2021/08/05 09:19:20;;;;;;;0.67;0.47;;;23.90;99.90;;;;;;5062437;28;20218;-87
2021/08/05 09:22:01;;;;;;;0.73;0.73;;;24.50;99.90;;;;;;5074500;28;20826;-86
2021/08/05 09:24:29;;;;;;;0.70;0.70;;;24.60;99.90;;;;;;5074485;28;20183;-87
2021/08/05 09:27:02;;;;;;;0.30;0.30;;;24.50;99.90;;;;;;5092512;28;20176;-87
2021/08/05 09:29:28;;;;;;;0.50;0.50;;;24.50;99.90;;;;;;5074042;28;20195;-87
2021/08/05 09:31:54;;;;;;;0.40;0.40;;;24.50;99.90;;;;;;5072328;28;20842;-87
2021/08/05 09:34:21;;;;;;;0.43;0.43;;;24.30;99.90;;;;;;5090172;28;20606;-87
2021/08/05 09:36:48;;;;;;;0.87;0.40;;;24.30;99.90;;;;;;5074064;28;20204;-87
2021/08/05 09:39:15;;;;;;;0.40;0.40;;;24.60;99.90;;;;;;5074107;28;20245;-87
2021/08/05 09:41:49;;;;;;;0.53;0.53;;;24.90;99.90;;;;;;5073998;28;20345;-87
2021/08/05 09:44:15;;;;;;;0.40;0.40;;;25.40;99.90;;;;;;5074319;28;20183;-87
2021/08/05 09:46:41;;;;;;;2.63;1.50;;;25.70;99.90;;;;;;5074227;28;20202;-87
2021/08/05 09:49:16;;;;;;;1.67;1.13;;;25.60;99.90;;;;;;5073334;28;20176;-87
2021/08/05 09:51:42;;;;;;;0.20;0.20;;;25.60;99.90;;;;;;5070732;28;20557;-87
2021/08/05 09:54:08;;;;;;;0.47;0.43;;;25.90;99.90;;;;;;5091763;28;20180;-87
2021/08/05 09:56:37;;;;;;;4.00;1.57;;;26.10;99.90;;;;;;5074058;28;20311;-87
2021/08/05 09:59:07;;;;;;;1.20;0.60;;;26.40;99.90;;;;;;5073844;28;20207;-87
2021/08/05 10:01:33;;;;;;;0.40;0.40;;;26.40;99.90;;;;;;5073856;28;20686;-87
2021/08/05 10:04:18;;;;;;;0.43;0.43;;;26.00;99.90;;;;;;5073501;28;20208;-87
2021/08/05 10:07:07;;;;;;;0.70;0.70;;;26.10;99.90;;;;;;5088457;28;20188;-86
2021/08/05 10:09:34;;;;;;;0.50;0.50;;;25.60;99.90;;;;;;5069261;28;20183;-87
2021/08/05 10:12:14;;;;;;;0.73;0.60;;;25.30;99.90;;;;;;5091845;28;20207;-87
2021/08/05 10:14:41;;;;;;;0.83;0.50;;;25.80;99.90;;;;;;5073975;28;20194;-87
2021/08/05 10:17:08;;;;;;;0.30;0.30;;;26.30;99.90;;;;;;5073857;28;20295;-87
2021/08/05 10:19:44;;;;;;;0.40;0.40;;;26.40;99.90;;;;;;5073542;28;20254;-87
2021/08/05 10:22:12;;;;;;;0.27;0.27;;;26.80;99.90;;;;;;5072828;28;20197;-87
2021/08/05 10:24:40;;;;;;;0.47;0.40;;;27.20;99.90;;;;;;5073510;28;20184;-87
2021/08/05 10:27:09;;;;;;;0.33;0.33;;;26.30;99.90;;;;;;5097051;28;20534;-88
2021/08/05 10:29:36;;;;;;;0.73;0.40;;;26.50;99.90;;;;;;5075921;28;20191;-87
2021/08/05 10:32:04;;;;;;;0.50;0.50;;;26.80;99.90;;;;;;5073641;28;20215;-87
2021/08/05 10:34:34;;;;;;;0.60;0.60;;;27.20;99.90;;;;;;5091683;28;20180;-87
2021/08/05 10:37:02;;;;;;;0.90;0.73;;;27.50;99.90;;;;;;5073804;28;20200;-87
2021/08/05 10:39:29;;;;;;;0.47;0.47;;;27.50;99.90;;;;;;5073302;28;20200;-87
2021/08/05 10:42:01;;;;;;;0.40;0.40;;;27.60;99.90;;;;;;5074940;28;20224;-87
2021/08/05 10:44:27;;;;;;;0.50;0.50;;;27.50;99.90;;;;;;5087430;28;20184;-87
2021/08/05 10:46:56;;;;;;;0.50;0.50;;;27.20;99.90;;;;;;5077259;28;20212;-87
2021/08/05 10:49:23;;;;;;;0.97;0.60;;;27.30;99.90;;;;;;5095096;28;20259;-87
2021/08/05 10:51:50;;;;;;;0.40;0.30;;;27.40;99.90;;;;;;5067736;28;20201;-86
2021/08/05 10:54:47;;;;;;;0.83;0.83;;;27.30;99.90;;;;;;5095010;28;20173;-87
2021/08/05 10:57:18;;;;;;;0.30;0.30;;;27.20;99.90;;;;;;5094908;28;20196;-87
2021/08/05 11:00:00;;;;;;;0.80;0.80;;;27.20;99.90;;;;;;5065158;28;20242;-87
2021/08/05 11:02:52;;;;;;;0.40;0.30;;;27.00;99.90;;;;;;5093824;28;20192;-87
2021/08/05 11:05:23;;;;;;;0.30;0.30;;;26.50;99.90;;;;;;5076067;28;20183;-87
2021/08/05 11:08:15;;;;;;;0.40;0.30;;;26.50;99.90;;;;;;5076757;28;20199;-87
2021/08/05 11:10:41;;;;;;;1.70;0.60;;;26.90;99.90;;;;;;5083568;28;20184;-86
2021/08/05 11:13:07;;;;;;;0.20;0.20;;;27.00;99.90;;;;;;5076634;28;20204;-87
2021/08/05 11:15:35;;;;;;;3.53;0.73;;;26.90;99.90;;;;;;5076461;28;20275;-87
2021/08/05 11:18:15;;;;;;;0.37;0.37;;;27.10;99.90;;;;;;5075448;28;20173;-87
2021/08/05 11:20:51;;;;;;;0.53;0.53;;;27.60;99.90;;;;;;5069949;28;20177;-87
2021/08/05 11:23:32;;;;;;;0.20;0.20;;;27.80;99.90;;;;;;5076735;28;20180;-87
2021/08/05 11:25:58;;;;;;;0.40;0.40;;;28.00;99.90;;;;;;5071446;28;20184;-87
2021/08/05 11:28:26;;;;;;;0.57;0.50;;;27.90;99.90;;;;;;5102798;28;20233;-87
2021/08/05 11:31:07;;;;;;;0.43;0.30;;;28.20;99.90;;;;;;5094435;28;20539;-88
2021/08/05 11:33:42;;;;;;;0.30;0.30;;;28.30;99.90;;;;;;5076354;28;20188;-87
2021/08/05 11:36:13;;;;;;;0.97;0.50;;;28.30;99.90;;;;;;5075963;28;20204;-87
2021/08/05 11:39:05;;;;;;;0.50;0.50;;;28.40;99.90;;;;;;5076165;28;20183;-87
2021/08/05 11:41:48;;;;;;;0.40;0.40;;;28.30;99.90;;;;;;5065886;28;20224;-87
2021/08/05 11:44:19;;;;;;;0.80;0.80;;;28.30;99.90;;;;;;5082477;28;20204;-87
2021/08/05 11:46:49;;;;;;;0.30;0.30;;;28.00;99.90;;;;;;5073664;28;20191;-87
2021/08/05 11:49:53;;;;;;;0.47;0.43;;;27.90;99.90;;;;;;5067563;28;20201;-86
2021/08/05 11:52:27;;;;;;;0.57;0.57;;;28.00;99.90;;;;;;5024343;28;20280;-87
2021/08/05 11:55:16;;;;;;;0.43;0.43;;;28.30;99.90;;;;;;5067024;28;20189;-87
2021/08/05 11:57:47;;;;;;;0.37;0.37;;;28.50;99.90;;;;;;5073053;28;20230;-87
2021/08/05 12:00:40;;;;;;;0.73;0.40;;;28.50;99.90;;;;;;5092682;28;20177;-87
2021/08/05 12:03:06;;;;;;;2.13;0.57;;;28.20;99.90;;;;;;5068364;28;20216;-87
2021/08/05 12:05:50;;;;;;;0.60;0.53;;;28.00;99.90;;;;;;5074967;28;20195;-87
2021/08/05 12:08:20;;;;;;;0.57;0.47;;;27.70;99.90;;;;;;5088390;28;20188;-87
2021/08/05 12:10:46;;;;;;;0.27;0.27;;;27.90;99.90;;;;;;5074000;28;20207;-87
2021/08/05 12:13:20;;;;;;;0.47;0.43;;;28.20;99.90;;;;;;5093000;28;20199;-87
2021/08/05 12:15:50;;;;;;;0.30;0.30;;;28.30;99.90;;;;;;5093609;28;20215;-87
2021/08/05 12:18:20;;;;;;;0.53;0.53;;;28.20;99.90;;;;;;5092605;28;20177;-87
2021/08/05 12:20:48;;;;;;;0.33;0.33;;;27.80;99.90;;;;;;5092930;28;20211;-87
2021/08/05 12:23:34;;;;;;;0.40;0.40;;;27.80;99.90;;;;;;5094920;28;20200;-86
2021/08/05 12:28:34;;;;;;;0.57;0.50;;;27.70;99.90;;;;;;5093259;28;20225;-87
2021/08/05 12:31:03;;;;;;;0.50;0.33;;;27.50;99.90;;;;;;5092717;28;20237;-87
2021/08/05 12:33:31;;;;;;;0.50;0.40;;;27.30;99.90;;;;;;5069739;28;20184;-87
2021/08/05 12:36:09;;;;;;;0.33;0.33;;;26.80;99.90;;;;;;5074291;28;20208;-87
2021/08/05 12:38:48;;;;;;;0.67;0.33;;;26.70;99.90;;;;;;5075227;28;20194;-87
2021/08/05 12:41:37;;;;;;;0.43;0.43;;;26.90;99.90;;;;;;5069386;28;20256;-87
2021/08/05 12:44:07;;;;;;;0.50;0.50;;;27.30;99.90;;;;;;5074233;28;20184;-87
2021/08/05 12:46:34;;;;;;;0.47;0.47;;;27.40;99.90;;;;;;5068340;28;20184;-87
2021/08/05 12:49:00;;;;;;;0.33;0.33;;;27.60;99.90;;;;;;5089913;28;20215;-87
2021/08/05 12:51:28;;;;;;;0.77;0.50;;;27.50;99.90;;;;;;5092309;28;20208;-87
2021/08/05 12:53:54;;;;;;;0.50;0.50;;;27.20;99.90;;;;;;5071726;28;20188;-87
2021/08/05 12:56:40;;;;;;;0.50;0.50;;;27.00;99.90;;;;;;5072654;28;20680;-87
2021/08/05 12:59:07;;;;;;;0.50;0.37;;;26.80;99.90;;;;;;5073559;28;20208;-87